sensor_id;sensor_type;location;lat;lon;timestamp;pressure;altitude;pressure_sealevel;temperature;humidity
57948;BME280;43754;56.992;24.292;2022-11-15T00:00:48;101969.78;;;3.89;100.00
57948;BME280;43754;56.992;24.292;2022-11-15T00:03:38;101963.22;;;3.95;100.00
57948;BME280;43754;56.992;24.292;2022-11-15T00:06:30;101965.09;;;3.93;100.00
57948;BME280;43754;56.992;24.292;2022-11-15T00:09:20;101958.84;;;3.94;100.00
57948;BME280;43754;56.992;24.292;2022-11-15T00:12:10;101952.91;;;3.90;100.00
57948;BME280;43754;56.992;24.292;2022-11-15T00:15:00;101947.06;;;3.98;100.00
57948;BME280;43754;56.992;24.292;2022-11-15T00:17:51;101939.09;;;3.98;100.00
57948;BME280;43754;56.992;24.292;2022-11-15T00:20:41;101945.34;;;3.97;100.00
57948;BME280;43754;56.992;24.292;2022-11-15T00:23:33;101938.38;;;3.96;100.00
57948;BME280;43754;56.992;24.292;2022-11-15T00:26:24;101928.41;;;3.99;100.00
57948;BME280;43754;56.992;24.292;2022-11-15T00:29:14;101920.44;;;3.99;100.00
57948;BME280;43754;56.992;24.292;2022-11-15T00:32:04;101913.53;;;3.97;100.00
57948;BME280;43754;56.992;24.292;2022-11-15T00:34:55;101912.72;;;3.96;100.00
57948;BME280;43754;56.992;24.292;2022-11-15T00:37:45;101915.22;;;3.98;100.00
57948;BME280;43754;56.992;24.292;2022-11-15T00:40:38;101914.06;;;4.02;100.00
57948;BME280;43754;56.992;24.292;2022-11-15T00:43:28;101922.16;;;4.00;100.00
57948;BME280;43754;56.992;24.292;2022-11-15T00:46:18;101924.47;;;4.05;100.00
57948;BME280;43754;56.992;24.292;2022-11-15T00:49:09;101919.16;;;4.05;100.00
57948;BME280;43754;56.992;24.292;2022-11-15T00:51:59;101910.22;;;4.06;100.00
57948;BME280;43754;56.992;24.292;2022-11-15T00:54:49;101909.28;;;4.07;100.00
57948;BME280;43754;56.992;24.292;2022-11-15T00:57:41;101895.16;;;4.06;100.00
57948;BME280;43754;56.992;24.292;2022-11-15T01:00:31;101891.47;;;4.09;100.00
57948;BME280;43754;56.992;24.292;2022-11-15T01:03:22;101883.06;;;4.02;100.00
57948;BME280;43754;56.992;24.292;2022-11-15T01:06:12;101885.34;;;3.96;100.00
57948;BME280;43754;56.992;24.292;2022-11-15T01:09:03;101892.84;;;4.02;100.00
57948;BME280;43754;56.992;24.292;2022-11-15T01:11:53;101882.97;;;4.04;100.00
57948;BME280;43754;56.992;24.292;2022-11-15T01:14:44;101872.13;;;4.07;100.00
57948;BME280;43754;56.992;24.292;2022-11-15T01:17:34;101868.41;;;4.09;100.00
57948;BME280;43754;56.992;24.292;2022-11-15T01:20:25;101857.06;;;4.07;100.00
57948;BME280;43754;56.992;24.292;2022-11-15T01:23:15;101858.78;;;4.08;100.00
57948;BME280;43754;56.992;24.292;2022-11-15T01:26:06;101868.06;;;4.14;100.00
57948;BME280;43754;56.992;24.292;2022-11-15T01:28:56;101854.09;;;4.12;100.00
57948;BME280;43754;56.992;24.292;2022-11-15T01:31:48;101854.72;;;4.15;100.00
57948;BME280;43754;56.992;24.292;2022-11-15T01:34:38;101853.22;;;4.11;100.00
57948;BME280;43754;56.992;24.292;2022-11-15T01:37:29;101851.53;;;4.10;100.00
57948;BME280;43754;56.992;24.292;2022-11-15T01:40:19;101849.41;;;4.15;100.00
57948;BME280;43754;56.992;24.292;2022-11-15T01:43:19;101852.78;;;4.17;100.00
57948;BME280;43754;56.992;24.292;2022-11-15T01:46:21;101849.41;;;4.15;100.00
57948;BME280;43754;56.992;24.292;2022-11-15T01:49:14;101842.28;;;4.16;100.00
57948;BME280;43754;56.992;24.292;2022-11-15T01:52:07;101836.22;;;4.14;100.00
57948;BME280;43754;56.992;24.292;2022-11-15T01:54:59;101829.13;;;4.14;100.00
57948;BME280;43754;56.992;24.292;2022-11-15T01:57:52;101818.94;;;4.21;100.00
57948;BME280;43754;56.992;24.292;2022-11-15T02:00:43;101818.78;;;4.23;100.00
57948;BME280;43754;56.992;24.292;2022-11-15T02:03:35;101807.78;;;4.16;100.00
57948;BME280;43754;56.992;24.292;2022-11-15T02:06:29;101813.81;;;4.18;100.00
57948;BME280;43754;56.992;24.292;2022-11-15T02:09:20;101807.47;;;4.21;100.00
57948;BME280;43754;56.992;24.292;2022-11-15T02:12:10;101794.53;;;4.16;100.00
57948;BME280;43754;56.992;24.292;2022-11-15T02:15:03;101804.25;;;4.04;100.00
57948;BME280;43754;56.992;24.292;2022-11-15T02:17:58;101804.63;;;4.11;100.00
57948;BME280;43754;56.992;24.292;2022-11-15T02:20:58;101804.41;;;4.14;100.00
57948;BME280;43754;56.992;24.292;2022-11-15T02:30:22;101793.69;;;4.15;100.00
57948;BME280;43754;56.992;24.292;2022-11-15T02:33:16;101792.06;;;4.26;100.00
57948;BME280;43754;56.992;24.292;2022-11-15T02:36:11;101787.19;;;4.20;100.00
57948;BME280;43754;56.992;24.292;2022-11-15T02:39:06;101778.59;;;4.16;100.00
57948;BME280;43754;56.992;24.292;2022-11-15T02:41:59;101780.41;;;4.15;100.00
57948;BME280;43754;56.992;24.292;2022-11-15T02:44:51;101769.69;;;4.17;100.00
57948;BME280;43754;56.992;24.292;2022-11-15T02:47:45;101766.56;;;4.23;100.00
57948;BME280;43754;56.992;24.292;2022-11-15T02:50:38;101766.22;;;4.28;100.00
57948;BME280;43754;56.992;24.292;2022-11-15T02:53:28;101759.22;;;4.27;100.00
57948;BME280;43754;56.992;24.292;2022-11-15T02:56:19;101752.78;;;4.18;100.00
57948;BME280;43754;56.992;24.292;2022-11-15T02:59:15;101753.63;;;4.18;100.00
57948;BME280;43754;56.992;24.292;2022-11-15T03:02:13;101742.94;;;4.20;100.00
57948;BME280;43754;56.992;24.292;2022-11-15T03:05:11;101737.72;;;4.18;100.00
57948;BME280;43754;56.992;24.292;2022-11-15T03:08:05;101741.72;;;4.24;100.00
57948;BME280;43754;56.992;24.292;2022-11-15T03:11:03;101727.63;;;4.24;100.00
57948;BME280;43754;56.992;24.292;2022-11-15T03:13:56;101731.84;;;4.26;100.00
57948;BME280;43754;56.992;24.292;2022-11-15T03:16:48;101725.06;;;4.22;100.00
57948;BME280;43754;56.992;24.292;2022-11-15T03:19:42;101716.97;;;4.12;100.00
57948;BME280;43754;56.992;24.292;2022-11-15T03:22:35;101708.25;;;4.10;100.00
57948;BME280;43754;56.992;24.292;2022-11-15T03:25:26;101722.03;;;4.15;100.00
57948;BME280;43754;56.992;24.292;2022-11-15T03:28:18;101699.84;;;4.16;100.00
57948;BME280;43754;56.992;24.292;2022-11-15T03:31:13;101696.34;;;4.16;100.00
57948;BME280;43754;56.992;24.292;2022-11-15T03:34:24;101681.03;;;4.20;100.00
57948;BME280;43754;56.992;24.292;2022-11-15T03:37:16;101685.59;;;4.17;100.00
57948;BME280;43754;56.992;24.292;2022-11-15T03:40:09;101677.38;;;4.09;100.00
57948;BME280;43754;56.992;24.292;2022-11-15T03:43:00;101662.81;;;4.15;100.00
57948;BME280;43754;56.992;24.292;2022-11-15T03:45:53;101651.75;;;4.21;100.00
57948;BME280;43754;56.992;24.292;2022-11-15T03:48:46;101644.25;;;4.15;100.00
57948;BME280;43754;56.992;24.292;2022-11-15T03:51:39;101646.03;;;4.14;100.00
57948;BME280;43754;56.992;24.292;2022-11-15T03:54:30;101638.94;;;4.15;100.00
57948;BME280;43754;56.992;24.292;2022-11-15T03:57:22;101631.94;;;4.14;100.00
57948;BME280;43754;56.992;24.292;2022-11-15T04:00:12;101620.97;;;4.18;100.00
57948;BME280;43754;56.992;24.292;2022-11-15T04:03:03;101611.44;;;4.16;100.00
57948;BME280;43754;56.992;24.292;2022-11-15T04:05:53;101606.38;;;4.13;100.00
57948;BME280;43754;56.992;24.292;2022-11-15T04:08:43;101604.78;;;4.10;100.00
57948;BME280;43754;56.992;24.292;2022-11-15T04:11:34;101596.59;;;4.13;100.00
57948;BME280;43754;56.992;24.292;2022-11-15T04:14:25;101593.84;;;4.15;100.00
57948;BME280;43754;56.992;24.292;2022-11-15T04:17:15;101578.66;;;4.17;100.00
57948;BME280;43754;56.992;24.292;2022-11-15T04:20:07;101575.25;;;4.15;100.00
57948;BME280;43754;56.992;24.292;2022-11-15T04:23:16;101572.00;;;4.11;100.00
57948;BME280;43754;56.992;24.292;2022-11-15T04:26:25;101572.97;;;4.10;100.00
57948;BME280;43754;56.992;24.292;2022-11-15T04:29:16;101581.31;;;4.17;100.00
57948;BME280;43754;56.992;24.292;2022-11-15T04:32:25;101580.09;;;4.21;100.00
57948;BME280;43754;56.992;24.292;2022-11-15T04:35:15;101573.22;;;4.18;100.00
57948;BME280;43754;56.992;24.292;2022-11-15T04:38:06;101570.19;;;4.12;100.00
57948;BME280;43754;56.992;24.292;2022-11-15T04:40:57;101572.84;;;4.23;100.00
57948;BME280;43754;56.992;24.292;2022-11-15T04:43:47;101570.81;;;4.27;100.00
57948;BME280;43754;56.992;24.292;2022-11-15T04:46:37;101560.09;;;4.28;100.00
57948;BME280;43754;56.992;24.292;2022-11-15T04:49:29;101560.78;;;4.30;100.00
57948;BME280;43754;56.992;24.292;2022-11-15T04:52:19;101567.09;;;4.29;100.00
57948;BME280;43754;56.992;24.292;2022-11-15T04:55:09;101561.63;;;4.20;100.00
57948;BME280;43754;56.992;24.292;2022-11-15T04:58:00;101564.41;;;4.18;100.00
57948;BME280;43754;56.992;24.292;2022-11-15T05:00:51;101567.31;;;4.15;100.00
57948;BME280;43754;56.992;24.292;2022-11-15T05:03:41;101567.19;;;4.16;100.00
57948;BME280;43754;56.992;24.292;2022-11-15T05:06:51;101563.69;;;4.16;100.00
57948;BME280;43754;56.992;24.292;2022-11-15T05:09:42;101553.94;;;4.16;100.00
57948;BME280;43754;56.992;24.292;2022-11-15T05:12:32;101548.03;;;4.24;100.00
57948;BME280;43754;56.992;24.292;2022-11-15T05:15:22;101541.16;;;4.33;100.00
57948;BME280;43754;56.992;24.292;2022-11-15T05:18:13;101539.94;;;4.37;100.00
57948;BME280;43754;56.992;24.292;2022-11-15T05:21:06;101536.19;;;4.39;100.00
57948;BME280;43754;56.992;24.292;2022-11-15T05:23:58;101533.06;;;4.45;100.00
57948;BME280;43754;56.992;24.292;2022-11-15T05:26:48;101524.25;;;4.45;100.00
57948;BME280;43754;56.992;24.292;2022-11-15T05:29:39;101520.06;;;4.42;100.00
57948;BME280;43754;56.992;24.292;2022-11-15T05:32:29;101517.63;;;4.39;100.00
57948;BME280;43754;56.992;24.292;2022-11-15T05:35:20;101519.66;;;4.36;100.00
57948;BME280;43754;56.992;24.292;2022-11-15T05:38:12;101514.97;;;4.39;100.00
57948;BME280;43754;56.992;24.292;2022-11-15T05:41:04;101521.47;;;4.35;100.00
57948;BME280;43754;56.992;24.292;2022-11-15T05:43:55;101518.59;;;4.38;100.00
57948;BME280;43754;56.992;24.292;2022-11-15T05:46:45;101520.28;;;4.28;100.00
57948;BME280;43754;56.992;24.292;2022-11-15T05:49:36;101513.50;;;4.35;100.00
57948;BME280;43754;56.992;24.292;2022-11-15T05:52:29;101506.63;;;4.44;100.00
57948;BME280;43754;56.992;24.292;2022-11-15T05:55:21;101505.06;;;4.52;100.00
57948;BME280;43754;56.992;24.292;2022-11-15T05:58:12;101500.00;;;4.49;100.00
57948;BME280;43754;56.992;24.292;2022-11-15T06:01:02;101498.78;;;4.53;100.00
57948;BME280;43754;56.992;24.292;2022-11-15T06:03:53;101494.34;;;4.54;100.00
57948;BME280;43754;56.992;24.292;2022-11-15T06:06:43;101492.63;;;4.53;100.00
57948;BME280;43754;56.992;24.292;2022-11-15T06:09:34;101491.31;;;4.58;100.00
57948;BME280;43754;56.992;24.292;2022-11-15T06:12:24;101482.13;;;4.62;100.00
57948;BME280;43754;56.992;24.292;2022-11-15T06:15:16;101492.50;;;4.66;100.00
57948;BME280;43754;56.992;24.292;2022-11-15T06:18:06;101488.88;;;4.67;100.00
57948;BME280;43754;56.992;24.292;2022-11-15T06:20:58;101485.97;;;4.70;100.00
57948;BME280;43754;56.992;24.292;2022-11-15T06:23:48;101494.66;;;4.72;100.00
57948;BME280;43754;56.992;24.292;2022-11-15T06:26:38;101480.66;;;4.70;100.00
57948;BME280;43754;56.992;24.292;2022-11-15T06:29:28;101481.13;;;4.63;100.00
57948;BME280;43754;56.992;24.292;2022-11-15T06:32:20;101482.09;;;4.74;100.00
57948;BME280;43754;56.992;24.292;2022-11-15T06:35:11;101482.44;;;4.80;100.00
57948;BME280;43754;56.992;24.292;2022-11-15T06:38:02;101477.84;;;4.82;100.00
57948;BME280;43754;56.992;24.292;2022-11-15T06:40:53;101476.63;;;4.86;100.00
57948;BME280;43754;56.992;24.292;2022-11-15T06:43:43;101480.84;;;4.89;100.00
57948;BME280;43754;56.992;24.292;2022-11-15T06:46:33;101478.69;;;4.83;100.00
57948;BME280;43754;56.992;24.292;2022-11-15T06:49:24;101484.59;;;4.86;100.00
57948;BME280;43754;56.992;24.292;2022-11-15T06:52:14;101482.31;;;4.82;100.00
57948;BME280;43754;56.992;24.292;2022-11-15T06:55:05;101480.50;;;4.82;100.00
57948;BME280;43754;56.992;24.292;2022-11-15T06:57:56;101477.84;;;4.82;100.00
57948;BME280;43754;56.992;24.292;2022-11-15T07:00:46;101474.25;;;4.83;100.00
57948;BME280;43754;56.992;24.292;2022-11-15T07:03:37;101468.19;;;4.92;100.00
57948;BME280;43754;56.992;24.292;2022-11-15T07:06:28;101466.97;;;4.96;100.00
57948;BME280;43754;56.992;24.292;2022-11-15T07:09:18;101473.56;;;5.02;100.00
57948;BME280;43754;56.992;24.292;2022-11-15T07:12:08;101465.22;;;5.06;100.00
57948;BME280;43754;56.992;24.292;2022-11-15T07:14:59;101462.69;;;5.05;100.00
57948;BME280;43754;56.992;24.292;2022-11-15T07:17:49;101461.00;;;5.04;100.00
57948;BME280;43754;56.992;24.292;2022-11-15T07:20:40;101461.69;;;5.06;100.00
57948;BME280;43754;56.992;24.292;2022-11-15T07:23:31;101453.03;;;5.04;100.00
57948;BME280;43754;56.992;24.292;2022-11-15T07:26:22;101452.31;;;5.02;100.00
57948;BME280;43754;56.992;24.292;2022-11-15T07:29:12;101460.16;;;5.03;100.00
57948;BME280;43754;56.992;24.292;2022-11-15T07:32:03;101455.53;;;5.05;100.00
57948;BME280;43754;56.992;24.292;2022-11-15T07:34:53;101456.59;;;5.14;100.00
57948;BME280;43754;56.992;24.292;2022-11-15T07:37:44;101457.22;;;5.18;100.00
57948;BME280;43754;56.992;24.292;2022-11-15T07:40:35;101452.84;;;5.17;100.00
57948;BME280;43754;56.992;24.292;2022-11-15T07:43:25;101462.25;;;5.21;100.00
57948;BME280;43754;56.992;24.292;2022-11-15T07:46:18;101440.94;;;5.32;100.00
57948;BME280;43754;56.992;24.292;2022-11-15T07:49:08;101454.34;;;5.30;100.00
57948;BME280;43754;56.992;24.292;2022-11-15T07:51:58;101450.53;;;5.23;100.00
57948;BME280;43754;56.992;24.292;2022-11-15T07:54:49;101445.56;;;5.30;100.00
57948;BME280;43754;56.992;24.292;2022-11-15T07:57:40;101433.53;;;5.35;100.00
57948;BME280;43754;56.992;24.292;2022-11-15T08:00:31;101420.97;;;5.37;100.00
57948;BME280;43754;56.992;24.292;2022-11-15T08:03:21;101437.03;;;5.36;100.00
57948;BME280;43754;56.992;24.292;2022-11-15T08:06:12;101432.19;;;5.41;100.00
57948;BME280;43754;56.992;24.292;2022-11-15T08:09:02;101422.13;;;5.44;100.00
57948;BME280;43754;56.992;24.292;2022-11-15T08:11:53;101416.25;;;5.41;100.00
57948;BME280;43754;56.992;24.292;2022-11-15T08:14:44;101414.06;;;5.55;100.00
57948;BME280;43754;56.992;24.292;2022-11-15T08:17:35;101419.84;;;5.61;100.00
57948;BME280;43754;56.992;24.292;2022-11-15T08:20:26;101411.19;;;5.59;100.00
57948;BME280;43754;56.992;24.292;2022-11-15T08:23:19;101418.03;;;5.61;100.00
57948;BME280;43754;56.992;24.292;2022-11-15T08:26:10;101407.88;;;5.45;100.00
57948;BME280;43754;56.992;24.292;2022-11-15T08:29:00;101417.53;;;5.46;100.00
57948;BME280;43754;56.992;24.292;2022-11-15T08:31:51;101415.97;;;5.44;100.00
57948;BME280;43754;56.992;24.292;2022-11-15T08:34:44;101407.78;;;5.56;100.00
57948;BME280;43754;56.992;24.292;2022-11-15T08:37:34;101400.72;;;5.67;100.00
57948;BME280;43754;56.992;24.292;2022-11-15T08:40:25;101403.22;;;5.68;100.00
57948;BME280;43754;56.992;24.292;2022-11-15T08:43:16;101395.78;;;5.62;100.00
57948;BME280;43754;56.992;24.292;2022-11-15T08:46:07;101400.44;;;5.70;100.00
57948;BME280;43754;56.992;24.292;2022-11-15T08:48:59;101393.44;;;5.69;100.00
57948;BME280;43754;56.992;24.292;2022-11-15T08:51:51;101391.22;;;5.74;100.00
57948;BME280;43754;56.992;24.292;2022-11-15T08:54:41;101391.41;;;5.82;100.00
57948;BME280;43754;56.992;24.292;2022-11-15T08:57:31;101386.66;;;5.85;100.00
57948;BME280;43754;56.992;24.292;2022-11-15T09:00:21;101387.41;;;5.87;100.00
57948;BME280;43754;56.992;24.292;2022-11-15T09:03:11;101383.34;;;5.93;100.00
57948;BME280;43754;56.992;24.292;2022-11-15T09:06:03;101376.22;;;5.93;100.00
57948;BME280;43754;56.992;24.292;2022-11-15T09:08:53;101374.97;;;5.97;100.00
57948;BME280;43754;56.992;24.292;2022-11-15T09:11:44;101372.06;;;6.00;100.00
57948;BME280;43754;56.992;24.292;2022-11-15T09:14:34;101363.91;;;6.02;100.00
57948;BME280;43754;56.992;24.292;2022-11-15T09:17:25;101367.13;;;5.96;100.00
57948;BME280;43754;56.992;24.292;2022-11-15T09:20:15;101366.41;;;5.94;100.00
57948;BME280;43754;56.992;24.292;2022-11-15T09:23:07;101364.72;;;5.93;100.00
57948;BME280;43754;56.992;24.292;2022-11-15T09:25:58;101368.16;;;6.05;100.00
57948;BME280;43754;56.992;24.292;2022-11-15T09:28:49;101361.00;;;6.05;100.00
57948;BME280;43754;56.992;24.292;2022-11-15T09:31:39;101358.63;;;6.12;100.00
57948;BME280;43754;56.992;24.292;2022-11-15T09:34:30;101355.28;;;6.19;100.00
57948;BME280;43754;56.992;24.292;2022-11-15T09:37:20;101351.53;;;6.22;100.00
57948;BME280;43754;56.992;24.292;2022-11-15T09:40:12;101351.53;;;6.31;100.00
57948;BME280;43754;56.992;24.292;2022-11-15T09:43:08;101352.81;;;6.37;100.00
57948;BME280;43754;56.992;24.292;2022-11-15T09:46:05;101344.94;;;6.35;100.00
57948;BME280;43754;56.992;24.292;2022-11-15T09:49:16;101334.84;;;6.39;100.00
57948;BME280;43754;56.992;24.292;2022-11-15T09:52:03;101334.19;;;6.46;100.00
57948;BME280;43754;56.992;24.292;2022-11-15T09:54:35;101328.16;;;6.54;100.00
57948;BME280;43754;56.992;24.292;2022-11-15T09:57:30;101321.00;;;6.64;100.00
57948;BME280;43754;56.992;24.292;2022-11-15T10:00:06;101321.28;;;6.71;100.00
57948;BME280;43754;56.992;24.292;2022-11-15T10:03:10;101319.75;;;6.78;100.00
57948;BME280;43754;56.992;24.292;2022-11-15T10:05:43;101318.19;;;6.85;100.00
57948;BME280;43754;56.992;24.292;2022-11-15T10:11:03;101303.16;;;6.93;100.00
57948;BME280;43754;56.992;24.292;2022-11-15T10:13:57;101302.00;;;7.06;100.00
57948;BME280;43754;56.992;24.292;2022-11-15T10:16:35;101307.34;;;7.15;100.00
57948;BME280;43754;56.992;24.292;2022-11-15T10:19:14;101301.28;;;7.23;100.00
57948;BME280;43754;56.992;24.292;2022-11-15T10:21:50;101300.84;;;7.27;100.00
57948;BME280;43754;56.992;24.292;2022-11-15T10:24:27;101296.47;;;7.36;100.00
57948;BME280;43754;56.992;24.292;2022-11-15T10:27:03;101296.88;;;7.41;100.00
57948;BME280;43754;56.992;24.292;2022-11-15T10:29:43;101295.72;;;7.44;100.00
57948;BME280;43754;56.992;24.292;2022-11-15T10:32:16;101299.97;;;7.46;100.00
57948;BME280;43754;56.992;24.292;2022-11-15T10:34:49;101295.16;;;7.50;100.00
57948;BME280;43754;56.992;24.292;2022-11-15T10:37:27;101290.69;;;7.50;100.00
57948;BME280;43754;56.992;24.292;2022-11-15T10:40:03;101283.88;;;7.56;100.00
57948;BME280;43754;56.992;24.292;2022-11-15T10:42:35;101285.00;;;7.63;100.00
57948;BME280;43754;56.992;24.292;2022-11-15T10:45:13;101283.41;;;7.70;100.00
57948;BME280;43754;56.992;24.292;2022-11-15T10:47:54;101279.03;;;7.78;100.00
57948;BME280;43754;56.992;24.292;2022-11-15T10:50:46;101287.97;;;7.87;100.00
57948;BME280;43754;56.992;24.292;2022-11-15T10:53:21;101272.34;;;7.92;100.00
57948;BME280;43754;56.992;24.292;2022-11-15T10:55:54;101276.94;;;8.00;100.00
57948;BME280;43754;56.992;24.292;2022-11-15T10:58:31;101274.50;;;8.06;100.00
57948;BME280;43754;56.992;24.292;2022-11-15T11:01:12;101270.69;;;8.09;100.00
57948;BME280;43754;56.992;24.292;2022-11-15T11:03:45;101270.69;;;8.09;100.00
57948;BME280;43754;56.992;24.292;2022-11-15T11:06:28;101270.78;;;8.17;100.00
57948;BME280;43754;56.992;24.292;2022-11-15T11:09:01;101272.25;;;8.29;100.00
57948;BME280;43754;56.992;24.292;2022-11-15T11:11:43;101271.19;;;8.40;100.00
57948;BME280;43754;56.992;24.292;2022-11-15T11:14:18;101276.47;;;8.49;100.00
57948;BME280;43754;56.992;24.292;2022-11-15T11:16:52;101280.56;;;8.44;100.00
57948;BME280;43754;56.992;24.292;2022-11-15T11:19:37;101280.56;;;8.26;100.00
57948;BME280;43754;56.992;24.292;2022-11-15T11:22:12;101276.88;;;8.27;100.00
57948;BME280;43754;56.992;24.292;2022-11-15T11:24:52;101281.78;;;8.31;100.00
57948;BME280;43754;56.992;24.292;2022-11-15T11:27:31;101272.47;;;8.36;100.00
57948;BME280;43754;56.992;24.292;2022-11-15T11:30:08;101277.53;;;8.39;100.00
57948;BME280;43754;56.992;24.292;2022-11-15T11:32:54;101286.34;;;8.21;100.00
57948;BME280;43754;56.992;24.292;2022-11-15T11:35:29;101274.94;;;7.84;100.00
57948;BME280;43754;56.992;24.292;2022-11-15T11:38:06;101284.41;;;7.69;100.00
57948;BME280;43754;56.992;24.292;2022-11-15T11:40:51;101283.56;;;7.68;100.00
57948;BME280;43754;56.992;24.292;2022-11-15T11:43:30;101273.59;;;7.70;100.00
57948;BME280;43754;56.992;24.292;2022-11-15T11:46:06;101280.75;;;7.70;100.00
57948;BME280;43754;56.992;24.292;2022-11-15T11:48:43;101279.91;;;7.69;100.00
57948;BME280;43754;56.992;24.292;2022-11-15T11:51:17;101276.91;;;7.55;100.00
57948;BME280;43754;56.992;24.292;2022-11-15T11:53:51;101276.91;;;7.55;100.00
57948;BME280;43754;56.992;24.292;2022-11-15T11:56:26;101273.81;;;7.50;100.00
57948;BME280;43754;56.992;24.292;2022-11-15T11:59:00;101275.50;;;7.51;100.00
57948;BME280;43754;56.992;24.292;2022-11-15T12:01:34;101269.13;;;7.61;100.00
57948;BME280;43754;56.992;24.292;2022-11-15T12:04:11;101265.88;;;7.67;100.00
57948;BME280;43754;56.992;24.292;2022-11-15T12:06:46;101266.56;;;7.69;100.00
57948;BME280;43754;56.992;24.292;2022-11-15T12:09:21;101275.09;;;7.73;100.00
57948;BME280;43754;56.992;24.292;2022-11-15T12:11:55;101276.25;;;7.70;100.00
57948;BME280;43754;56.992;24.292;2022-11-15T12:14:31;101271.22;;;7.67;100.00
57948;BME280;43754;56.992;24.292;2022-11-15T12:17:04;101285.41;;;7.68;100.00
57948;BME280;43754;56.992;24.292;2022-11-15T12:19:37;101274.69;;;7.40;100.00
57948;BME280;43754;56.992;24.292;2022-11-15T12:22:10;101278.53;;;7.28;100.00
57948;BME280;43754;56.992;24.292;2022-11-15T12:24:45;101266.06;;;7.19;100.00
57948;BME280;43754;56.992;24.292;2022-11-15T12:27:18;101275.22;;;7.17;100.00
57948;BME280;43754;56.992;24.292;2022-11-15T12:29:57;101278.72;;;7.17;100.00
57948;BME280;43754;56.992;24.292;2022-11-15T12:32:31;101270.56;;;7.19;100.00
57948;BME280;43754;56.992;24.292;2022-11-15T12:35:06;101273.53;;;7.16;100.00
57948;BME280;43754;56.992;24.292;2022-11-15T12:37:52;101280.97;;;7.12;100.00
57948;BME280;43754;56.992;24.292;2022-11-15T12:40:30;101270.59;;;7.09;100.00
57948;BME280;43754;56.992;24.292;2022-11-15T12:43:04;101273.72;;;7.05;100.00
57948;BME280;43754;56.992;24.292;2022-11-15T12:45:37;101275.81;;;7.01;100.00
57948;BME280;43754;56.992;24.292;2022-11-15T12:51:01;101295.34;;;6.92;100.00
57948;BME280;43754;56.992;24.292;2022-11-15T12:53:33;101280.19;;;6.83;100.00
57948;BME280;43754;56.992;24.292;2022-11-15T12:56:15;101283.03;;;6.72;100.00
57948;BME280;43754;56.992;24.292;2022-11-15T12:58:51;101281.16;;;6.72;100.00
57948;BME280;43754;56.992;24.292;2022-11-15T13:04:14;101285.56;;;6.64;100.00
57948;BME280;43754;56.992;24.292;2022-11-15T13:06:54;101286.53;;;6.63;100.00
57948;BME280;43754;56.992;24.292;2022-11-15T13:12:51;101282.88;;;6.54;100.00
57948;BME280;43754;56.992;24.292;2022-11-15T13:15:37;101281.91;;;6.45;100.00
57948;BME280;43754;56.992;24.292;2022-11-15T13:18:29;101286.50;;;6.43;100.00
57948;BME280;43754;56.992;24.292;2022-11-15T13:21:02;101284.97;;;6.31;100.00
57948;BME280;43754;56.992;24.292;2022-11-15T13:23:55;101282.72;;;6.27;100.00
57948;BME280;43754;56.992;24.292;2022-11-15T13:26:27;101282.00;;;6.15;100.00
57948;BME280;43754;56.992;24.292;2022-11-15T13:28:59;101279.47;;;6.14;100.00
57948;BME280;43754;56.992;24.292;2022-11-15T13:31:35;101284.38;;;6.18;100.00
57948;BME280;43754;56.992;24.292;2022-11-15T13:34:15;101287.06;;;6.18;100.00
57948;BME280;43754;56.992;24.292;2022-11-15T13:37:09;101285.25;;;6.09;100.00
57948;BME280;43754;56.992;24.292;2022-11-15T13:39:45;101293.91;;;6.11;100.00
57948;BME280;43754;56.992;24.292;2022-11-15T13:42:17;101291.81;;;6.05;100.00
57948;BME280;43754;56.992;24.292;2022-11-15T13:44:56;101292.34;;;5.99;100.00
57948;BME280;43754;56.992;24.292;2022-11-15T13:47:28;101296.72;;;6.00;100.00
57948;BME280;43754;56.992;24.292;2022-11-15T13:50:01;101300.34;;;5.99;100.00
57948;BME280;43754;56.992;24.292;2022-11-15T13:52:33;101295.84;;;5.99;100.00
57948;BME280;43754;56.992;24.292;2022-11-15T13:55:10;101297.41;;;6.12;100.00
57948;BME280;43754;56.992;24.292;2022-11-15T13:57:45;101301.22;;;6.09;100.00
57948;BME280;43754;56.992;24.292;2022-11-15T14:00:29;101303.03;;;6.18;100.00
57948;BME280;43754;56.992;24.292;2022-11-15T14:03:06;101298.97;;;6.14;100.00
57948;BME280;43754;56.992;24.292;2022-11-15T14:05:38;101309.34;;;6.17;100.00
57948;BME280;43754;56.992;24.292;2022-11-15T14:08:21;101302.78;;;6.21;100.00
57948;BME280;43754;56.992;24.292;2022-11-15T14:11:12;101309.19;;;6.09;100.00
57948;BME280;43754;56.992;24.292;2022-11-15T14:13:59;101305.66;;;5.99;100.00
57948;BME280;43754;56.992;24.292;2022-11-15T14:16:34;101307.75;;;5.95;100.00
57948;BME280;43754;56.992;24.292;2022-11-15T14:19:09;101313.59;;;5.89;100.00
57948;BME280;43754;56.992;24.292;2022-11-15T14:24:31;101310.41;;;5.95;100.00
57948;BME280;43754;56.992;24.292;2022-11-15T14:27:17;101307.88;;;5.94;100.00
57948;BME280;43754;56.992;24.292;2022-11-15T14:29:49;101305.66;;;5.99;100.00
57948;BME280;43754;56.992;24.292;2022-11-15T14:32:21;101314.50;;;5.99;100.00
57948;BME280;43754;56.992;24.292;2022-11-15T14:34:54;101315.06;;;6.03;100.00
57948;BME280;43754;56.992;24.292;2022-11-15T14:37:27;101314.78;;;5.96;100.00
57948;BME280;43754;56.992;24.292;2022-11-15T14:40:00;101322.75;;;5.96;100.00
57948;BME280;43754;56.992;24.292;2022-11-15T14:42:33;101312.31;;;5.84;100.00